sensor_id;sensor_type;location;lat;lon;timestamp;P1;durP1;ratioP1;P2;durP2;ratioP2
23146;SDS011;11742;53.532;-1.478;2022-11-24T00:00:47;1.17;;;0.63;;
23146;SDS011;11742;53.532;-1.478;2022-11-24T00:03:12;1.63;;;0.68;;
23146;SDS011;11742;53.532;-1.478;2022-11-24T00:05:38;1.40;;;0.60;;
23146;SDS011;11742;53.532;-1.478;2022-11-24T00:08:04;1.50;;;0.57;;
23146;SDS011;11742;53.532;-1.478;2022-11-24T00:10:29;1.45;;;0.57;;
23146;SDS011;11742;53.532;-1.478;2022-11-24T00:12:55;1.38;;;0.50;;
23146;SDS011;11742;53.532;-1.478;2022-11-24T00:15:21;2.55;;;0.95;;
23146;SDS011;11742;53.532;-1.478;2022-11-24T00:17:46;1.15;;;0.43;;
23146;SDS011;11742;53.532;-1.478;2022-11-24T00:20:12;1.38;;;0.40;;
23146;SDS011;11742;53.532;-1.478;2022-11-24T00:22:37;1.63;;;0.80;;
23146;SDS011;11742;53.532;-1.478;2022-11-24T00:25:03;3.40;;;0.70;;
23146;SDS011;11742;53.532;-1.478;2022-11-24T00:27:29;1.00;;;0.47;;
23146;SDS011;11742;53.532;-1.478;2022-11-24T00:29:55;1.33;;;0.68;;
23146;SDS011;11742;53.532;-1.478;2022-11-24T00:32:21;3.15;;;0.70;;
23146;SDS011;11742;53.532;-1.478;2022-11-24T00:34:47;3.65;;;1.38;;
23146;SDS011;11742;53.532;-1.478;2022-11-24T00:37:13;2.03;;;0.88;;
23146;SDS011;11742;53.532;-1.478;2022-11-24T00:39:38;2.33;;;0.70;;
23146;SDS011;11742;53.532;-1.478;2022-11-24T00:42:04;3.80;;;0.60;;
23146;SDS011;11742;53.532;-1.478;2022-11-24T00:44:29;1.38;;;0.65;;
23146;SDS011;11742;53.532;-1.478;2022-11-24T00:46:55;2.20;;;0.60;;
23146;SDS011;11742;53.532;-1.478;2022-11-24T00:49:21;0.73;;;0.40;;
23146;SDS011;11742;53.532;-1.478;2022-11-24T00:51:46;2.25;;;0.60;;
23146;SDS011;11742;53.532;-1.478;2022-11-24T00:54:12;0.95;;;0.47;;
23146;SDS011;11742;53.532;-1.478;2022-11-24T00:56:38;2.58;;;0.80;;
23146;SDS011;11742;53.532;-1.478;2022-11-24T00:59:04;2.28;;;0.70;;
23146;SDS011;11742;53.532;-1.478;2022-11-24T01:01:29;1.98;;;0.70;;
23146;SDS011;11742;53.532;-1.478;2022-11-24T01:03:55;1.33;;;0.80;;
23146;SDS011;11742;53.532;-1.478;2022-11-24T01:06:25;1.20;;;0.47;;
23146;SDS011;11742;53.532;-1.478;2022-11-24T01:08:52;1.67;;;0.65;;
23146;SDS011;11742;53.532;-1.478;2022-11-24T01:11:21;5.68;;;0.90;;
23146;SDS011;11742;53.532;-1.478;2022-11-24T01:13:50;1.60;;;0.73;;
23146;SDS011;11742;53.532;-1.478;2022-11-24T01:16:19;1.58;;;0.80;;
23146;SDS011;11742;53.532;-1.478;2022-11-24T01:18:47;1.30;;;0.60;;
23146;SDS011;11742;53.532;-1.478;2022-11-24T01:21:13;0.93;;;0.60;;
23146;SDS011;11742;53.532;-1.478;2022-11-24T01:23:41;1.13;;;0.50;;
23146;SDS011;11742;53.532;-1.478;2022-11-24T01:26:07;1.83;;;0.68;;
23146;SDS011;11742;53.532;-1.478;2022-11-24T01:28:35;3.75;;;0.70;;
23146;SDS011;11742;53.532;-1.478;2022-11-24T01:31:02;0.88;;;0.50;;
23146;SDS011;11742;53.532;-1.478;2022-11-24T01:33:29;0.98;;;0.60;;
23146;SDS011;11742;53.532;-1.478;2022-11-24T01:35:55;2.17;;;0.70;;
23146;SDS011;11742;53.532;-1.478;2022-11-24T01:38:22;1.85;;;0.63;;
23146;SDS011;11742;53.532;-1.478;2022-11-24T01:40:48;3.03;;;0.70;;
23146;SDS011;11742;53.532;-1.478;2022-11-24T01:43:14;0.90;;;0.60;;
23146;SDS011;11742;53.532;-1.478;2022-11-24T01:45:42;1.77;;;0.50;;
23146;SDS011;11742;53.532;-1.478;2022-11-24T01:48:28;0.90;;;0.60;;
23146;SDS011;11742;53.532;-1.478;2022-11-24T01:51:03;2.17;;;0.50;;
23146;SDS011;11742;53.532;-1.478;2022-11-24T01:53:51;0.82;;;0.32;;
23146;SDS011;11742;53.532;-1.478;2022-11-24T01:56:23;2.97;;;0.50;;
23146;SDS011;11742;53.532;-1.478;2022-11-24T01:58:49;2.88;;;0.93;;
23146;SDS011;11742;53.532;-1.478;2022-11-24T02:01:19;1.27;;;0.60;;
23146;SDS011;11742;53.532;-1.478;2022-11-24T02:03:44;1.58;;;0.50;;
23146;SDS011;11742;53.532;-1.478;2022-11-24T02:06:12;2.30;;;0.60;;
23146;SDS011;11742;53.532;-1.478;2022-11-24T02:08:45;1.65;;;0.55;;
23146;SDS011;11742;53.532;-1.478;2022-11-24T02:11:13;2.40;;;0.77;;
23146;SDS011;11742;53.532;-1.478;2022-11-24T02:13:39;1.75;;;0.70;;
23146;SDS011;11742;53.532;-1.478;2022-11-24T02:16:06;1.33;;;0.68;;
23146;SDS011;11742;53.532;-1.478;2022-11-24T02:18:35;3.45;;;0.65;;
23146;SDS011;11742;53.532;-1.478;2022-11-24T02:21:02;1.77;;;0.57;;
23146;SDS011;11742;53.532;-1.478;2022-11-24T02:28:37;2.42;;;0.65;;
23146;SDS011;11742;53.532;-1.478;2022-11-24T02:31:04;0.52;;;0.40;;
23146;SDS011;11742;53.532;-1.478;2022-11-24T02:33:30;1.27;;;0.55;;
23146;SDS011;11742;53.532;-1.478;2022-11-24T02:35:57;1.88;;;0.70;;
23146;SDS011;11742;53.532;-1.478;2022-11-24T02:38:33;3.08;;;0.60;;
23146;SDS011;11742;53.532;-1.478;2022-11-24T02:41:01;0.85;;;0.55;;
23146;SDS011;11742;53.532;-1.478;2022-11-24T02:43:31;2.00;;;1.20;;
23146;SDS011;11742;53.532;-1.478;2022-11-24T02:46:10;0.77;;;0.52;;
23146;SDS011;11742;53.532;-1.478;2022-11-24T02:48:36;1.50;;;0.75;;
23146;SDS011;11742;53.532;-1.478;2022-11-24T02:51:02;1.27;;;0.50;;
23146;SDS011;11742;53.532;-1.478;2022-11-24T02:53:28;2.35;;;0.90;;
23146;SDS011;11742;53.532;-1.478;2022-11-24T02:55:53;2.08;;;0.50;;
23146;SDS011;11742;53.532;-1.478;2022-11-24T02:58:19;2.80;;;0.60;;
23146;SDS011;11742;53.532;-1.478;2022-11-24T03:00:45;1.85;;;0.90;;
23146;SDS011;11742;53.532;-1.478;2022-11-24T03:03:11;1.75;;;0.60;;
23146;SDS011;11742;53.532;-1.478;2022-11-24T03:05:37;2.25;;;0.70;;
23146;SDS011;11742;53.532;-1.478;2022-11-24T03:08:02;3.97;;;0.70;;
23146;SDS011;11742;53.532;-1.478;2022-11-24T03:10:28;2.88;;;0.98;;
23146;SDS011;11742;53.532;-1.478;2022-11-24T03:12:54;2.53;;;0.75;;
23146;SDS011;11742;53.532;-1.478;2022-11-24T03:15:20;2.67;;;0.77;;
23146;SDS011;11742;53.532;-1.478;2022-11-24T03:17:47;0.95;;;0.68;;
23146;SDS011;11742;53.532;-1.478;2022-11-24T03:20:14;2.42;;;0.60;;
23146;SDS011;11742;53.532;-1.478;2022-11-24T03:22:40;2.72;;;1.00;;
23146;SDS011;11742;53.532;-1.478;2022-11-24T03:25:06;3.17;;;0.65;;
23146;SDS011;11742;53.532;-1.478;2022-11-24T03:27:31;1.08;;;0.70;;
23146;SDS011;11742;53.532;-1.478;2022-11-24T03:29:57;1.65;;;0.85;;
23146;SDS011;11742;53.532;-1.478;2022-11-24T03:32:23;3.40;;;0.80;;
23146;SDS011;11742;53.532;-1.478;2022-11-24T03:34:49;1.08;;;0.40;;
23146;SDS011;11742;53.532;-1.478;2022-11-24T03:37:15;1.05;;;0.50;;
23146;SDS011;11742;53.532;-1.478;2022-11-24T03:39:41;2.38;;;1.27;;
23146;SDS011;11742;53.532;-1.478;2022-11-24T03:42:06;3.28;;;0.70;;
23146;SDS011;11742;53.532;-1.478;2022-11-24T03:44:32;2.60;;;0.80;;
23146;SDS011;11742;53.532;-1.478;2022-11-24T03:46:58;3.03;;;0.70;;
23146;SDS011;11742;53.532;-1.478;2022-11-24T03:49:23;2.78;;;0.50;;
23146;SDS011;11742;53.532;-1.478;2022-11-24T03:51:49;0.90;;;0.57;;
23146;SDS011;11742;53.532;-1.478;2022-11-24T03:54:14;2.25;;;0.60;;
23146;SDS011;11742;53.532;-1.478;2022-11-24T03:56:40;1.98;;;0.85;;
23146;SDS011;11742;53.532;-1.478;2022-11-24T03:59:06;1.95;;;0.73;;
23146;SDS011;11742;53.532;-1.478;2022-11-24T04:01:32;3.65;;;0.57;;
23146;SDS011;11742;53.532;-1.478;2022-11-24T04:03:58;3.20;;;0.80;;
23146;SDS011;11742;53.532;-1.478;2022-11-24T04:06:24;2.35;;;0.80;;
23146;SDS011;11742;53.532;-1.478;2022-11-24T04:08:49;2.33;;;0.60;;
23146;SDS011;11742;53.532;-1.478;2022-11-24T04:11:15;3.47;;;0.90;;
23146;SDS011;11742;53.532;-1.478;2022-11-24T04:13:59;1.23;;;0.60;;
23146;SDS011;11742;53.532;-1.478;2022-11-24T04:16:25;1.98;;;0.70;;
23146;SDS011;11742;53.532;-1.478;2022-11-24T04:18:51;2.55;;;0.90;;
23146;SDS011;11742;53.532;-1.478;2022-11-24T04:21:17;2.83;;;0.75;;
23146;SDS011;11742;53.532;-1.478;2022-11-24T04:23:44;1.60;;;0.80;;
23146;SDS011;11742;53.532;-1.478;2022-11-24T04:26:10;0.93;;;0.60;;
23146;SDS011;11742;53.532;-1.478;2022-11-24T04:28:35;2.22;;;0.82;;
23146;SDS011;11742;53.532;-1.478;2022-11-24T04:31:02;2.72;;;0.98;;
23146;SDS011;11742;53.532;-1.478;2022-11-24T04:33:29;3.65;;;0.75;;
23146;SDS011;11742;53.532;-1.478;2022-11-24T04:35:55;3.00;;;0.70;;
23146;SDS011;11742;53.532;-1.478;2022-11-24T04:38:20;2.25;;;0.60;;
23146;SDS011;11742;53.532;-1.478;2022-11-24T04:40:46;0.88;;;0.50;;
23146;SDS011;11742;53.532;-1.478;2022-11-24T04:43:12;1.30;;;0.63;;
23146;SDS011;11742;53.532;-1.478;2022-11-24T04:45:37;1.83;;;0.60;;
23146;SDS011;11742;53.532;-1.478;2022-11-24T04:48:03;2.95;;;0.70;;
23146;SDS011;11742;53.532;-1.478;2022-11-24T04:50:29;2.53;;;0.60;;
23146;SDS011;11742;53.532;-1.478;2022-11-24T04:52:55;1.25;;;0.50;;
23146;SDS011;11742;53.532;-1.478;2022-11-24T04:55:21;3.90;;;1.00;;
23146;SDS011;11742;53.532;-1.478;2022-11-24T04:57:46;3.83;;;0.80;;
23146;SDS011;11742;53.532;-1.478;2022-11-24T05:00:12;2.10;;;0.75;;
23146;SDS011;11742;53.532;-1.478;2022-11-24T05:02:38;2.05;;;0.70;;
23146;SDS011;11742;53.532;-1.478;2022-11-24T05:05:04;5.05;;;0.90;;
23146;SDS011;11742;53.532;-1.478;2022-11-24T05:07:31;1.13;;;0.60;;
23146;SDS011;11742;53.532;-1.478;2022-11-24T05:09:56;2.78;;;0.70;;
23146;SDS011;11742;53.532;-1.478;2022-11-24T05:12:41;1.30;;;0.75;;
23146;SDS011;11742;53.532;-1.478;2022-11-24T05:15:07;2.25;;;0.90;;
23146;SDS011;11742;53.532;-1.478;2022-11-24T05:17:34;3.50;;;0.70;;
23146;SDS011;11742;53.532;-1.478;2022-11-24T05:20:00;1.95;;;0.65;;
23146;SDS011;11742;53.532;-1.478;2022-11-24T05:22:27;2.15;;;0.63;;
23146;SDS011;11742;53.532;-1.478;2022-11-24T05:24:53;2.78;;;0.80;;
23146;SDS011;11742;53.532;-1.478;2022-11-24T05:27:19;1.70;;;0.70;;
23146;SDS011;11742;53.532;-1.478;2022-11-24T05:29:45;3.08;;;0.82;;
23146;SDS011;11742;53.532;-1.478;2022-11-24T05:32:10;2.05;;;0.57;;
23146;SDS011;11742;53.532;-1.478;2022-11-24T05:34:36;3.33;;;0.70;;
23146;SDS011;11742;53.532;-1.478;2022-11-24T05:37:02;3.35;;;0.90;;
23146;SDS011;11742;53.532;-1.478;2022-11-24T05:39:30;2.80;;;0.75;;
23146;SDS011;11742;53.532;-1.478;2022-11-24T05:41:56;3.40;;;0.77;;
23146;SDS011;11742;53.532;-1.478;2022-11-24T05:44:22;3.35;;;0.77;;
23146;SDS011;11742;53.532;-1.478;2022-11-24T05:46:47;3.83;;;0.80;;
23146;SDS011;11742;53.532;-1.478;2022-11-24T05:49:13;3.17;;;0.70;;
23146;SDS011;11742;53.532;-1.478;2022-11-24T05:51:39;4.72;;;1.02;;
23146;SDS011;11742;53.532;-1.478;2022-11-24T05:54:04;2.38;;;0.50;;
23146;SDS011;11742;53.532;-1.478;2022-11-24T05:56:30;3.42;;;0.77;;
23146;SDS011;11742;53.532;-1.478;2022-11-24T05:58:56;2.20;;;0.73;;
23146;SDS011;11742;53.532;-1.478;2022-11-24T06:01:21;2.08;;;0.70;;
23146;SDS011;11742;53.532;-1.478;2022-11-24T06:03:47;3.38;;;0.90;;
23146;SDS011;11742;53.532;-1.478;2022-11-24T06:06:12;2.35;;;0.50;;
23146;SDS011;11742;53.532;-1.478;2022-11-24T06:08:38;1.88;;;0.52;;
23146;SDS011;11742;53.532;-1.478;2022-11-24T06:11:04;2.50;;;0.80;;
23146;SDS011;11742;53.532;-1.478;2022-11-24T06:13:42;2.97;;;0.80;;
23146;SDS011;11742;53.532;-1.478;2022-11-24T06:16:08;1.38;;;0.68;;
23146;SDS011;11742;53.532;-1.478;2022-11-24T06:18:34;2.70;;;0.73;;
23146;SDS011;11742;53.532;-1.478;2022-11-24T06:21:03;3.58;;;0.80;;
23146;SDS011;11742;53.532;-1.478;2022-11-24T06:23:30;2.97;;;0.70;;
23146;SDS011;11742;53.532;-1.478;2022-11-24T06:25:57;3.25;;;0.70;;
23146;SDS011;11742;53.532;-1.478;2022-11-24T06:28:23;4.53;;;0.80;;
23146;SDS011;11742;53.532;-1.478;2022-11-24T06:30:49;1.85;;;0.70;;
23146;SDS011;11742;53.532;-1.478;2022-11-24T06:33:15;2.70;;;0.82;;
23146;SDS011;11742;53.532;-1.478;2022-11-24T06:35:40;1.85;;;0.70;;
23146;SDS011;11742;53.532;-1.478;2022-11-24T06:38:06;4.13;;;0.75;;
23146;SDS011;11742;53.532;-1.478;2022-11-24T06:40:31;1.60;;;0.60;;
23146;SDS011;11742;53.532;-1.478;2022-11-24T06:42:57;2.78;;;0.80;;
23146;SDS011;11742;53.532;-1.478;2022-11-24T06:45:23;1.73;;;0.75;;
23146;SDS011;11742;53.532;-1.478;2022-11-24T06:47:52;1.33;;;0.50;;
23146;SDS011;11742;53.532;-1.478;2022-11-24T06:50:18;2.90;;;0.90;;
23146;SDS011;11742;53.532;-1.478;2022-11-24T06:52:44;3.25;;;0.82;;
23146;SDS011;11742;53.532;-1.478;2022-11-24T06:55:10;2.83;;;0.95;;
23146;SDS011;11742;53.532;-1.478;2022-11-24T06:57:35;2.58;;;0.90;;
23146;SDS011;11742;53.532;-1.478;2022-11-24T07:00:02;3.53;;;0.68;;
23146;SDS011;11742;53.532;-1.478;2022-11-24T07:02:29;2.22;;;0.70;;
23146;SDS011;11742;53.532;-1.478;2022-11-24T07:04:55;2.22;;;0.93;;
23146;SDS011;11742;53.532;-1.478;2022-11-24T07:07:20;1.42;;;0.80;;
23146;SDS011;11742;53.532;-1.478;2022-11-24T07:09:46;3.90;;;1.10;;
23146;SDS011;11742;53.532;-1.478;2022-11-24T07:12:12;3.10;;;0.85;;
23146;SDS011;11742;53.532;-1.478;2022-11-24T07:14:37;2.50;;;0.88;;
23146;SDS011;11742;53.532;-1.478;2022-11-24T07:17:03;2.00;;;0.80;;
23146;SDS011;11742;53.532;-1.478;2022-11-24T07:19:29;5.65;;;1.08;;
23146;SDS011;11742;53.532;-1.478;2022-11-24T07:21:55;2.28;;;0.75;;
23146;SDS011;11742;53.532;-1.478;2022-11-24T07:24:21;2.83;;;0.80;;
23146;SDS011;11742;53.532;-1.478;2022-11-24T07:26:47;2.38;;;0.90;;
23146;SDS011;11742;53.532;-1.478;2022-11-24T07:29:12;2.70;;;0.80;;
23146;SDS011;11742;53.532;-1.478;2022-11-24T07:31:38;4.78;;;1.15;;
23146;SDS011;11742;53.532;-1.478;2022-11-24T07:34:04;4.28;;;0.85;;
23146;SDS011;11742;53.532;-1.478;2022-11-24T07:36:30;5.25;;;1.20;;
23146;SDS011;11742;53.532;-1.478;2022-11-24T07:38:56;4.22;;;0.93;;
23146;SDS011;11742;53.532;-1.478;2022-11-24T07:41:21;4.07;;;1.17;;
23146;SDS011;11742;53.532;-1.478;2022-11-24T07:43:47;4.50;;;1.10;;
23146;SDS011;11742;53.532;-1.478;2022-11-24T07:46:14;4.35;;;0.80;;
23146;SDS011;11742;53.532;-1.478;2022-11-24T07:48:41;4.25;;;1.10;;
23146;SDS011;11742;53.532;-1.478;2022-11-24T07:51:07;6.28;;;1.65;;
23146;SDS011;11742;53.532;-1.478;2022-11-24T07:53:34;5.35;;;1.10;;
23146;SDS011;11742;53.532;-1.478;2022-11-24T07:56:00;2.85;;;0.80;;
23146;SDS011;11742;53.532;-1.478;2022-11-24T07:58:27;5.50;;;0.88;;
23146;SDS011;11742;53.532;-1.478;2022-11-24T08:00:54;3.28;;;0.88;;
23146;SDS011;11742;53.532;-1.478;2022-11-24T08:03:20;5.70;;;1.50;;
23146;SDS011;11742;53.532;-1.478;2022-11-24T08:06:04;6.88;;;1.20;;
23146;SDS011;11742;53.532;-1.478;2022-11-24T08:08:30;2.55;;;1.02;;
23146;SDS011;11742;53.532;-1.478;2022-11-24T08:11:03;6.93;;;1.25;;
23146;SDS011;11742;53.532;-1.478;2022-11-24T08:16:02;3.38;;;1.15;;
23146;SDS011;11742;53.532;-1.478;2022-11-24T08:18:38;4.70;;;1.27;;
23146;SDS011;11742;53.532;-1.478;2022-11-24T08:21:05;4.07;;;1.20;;
23146;SDS011;11742;53.532;-1.478;2022-11-24T08:23:32;4.35;;;1.10;;
23146;SDS011;11742;53.532;-1.478;2022-11-24T08:25:58;3.83;;;1.00;;
23146;SDS011;11742;53.532;-1.478;2022-11-24T08:28:29;6.28;;;1.42;;
23146;SDS011;11742;53.532;-1.478;2022-11-24T08:31:06;8.70;;;1.42;;
23146;SDS011;11742;53.532;-1.478;2022-11-24T08:33:36;4.78;;;1.20;;
23146;SDS011;11742;53.532;-1.478;2022-11-24T08:36:03;3.88;;;0.93;;
23146;SDS011;11742;53.532;-1.478;2022-11-24T08:38:30;7.80;;;1.55;;
23146;SDS011;11742;53.532;-1.478;2022-11-24T08:41:03;7.13;;;1.08;;
23146;SDS011;11742;53.532;-1.478;2022-11-24T08:43:33;6.03;;;1.83;;
23146;SDS011;11742;53.532;-1.478;2022-11-24T08:46:00;4.72;;;1.40;;
23146;SDS011;11742;53.532;-1.478;2022-11-24T08:48:48;5.50;;;1.50;;
23146;SDS011;11742;53.532;-1.478;2022-11-24T08:51:16;4.70;;;1.42;;
23146;SDS011;11742;53.532;-1.478;2022-11-24T08:53:44;5.57;;;1.40;;
23146;SDS011;11742;53.532;-1.478;2022-11-24T08:56:11;4.47;;;1.30;;
23146;SDS011;11742;53.532;-1.478;2022-11-24T08:58:37;7.10;;;1.40;;
23146;SDS011;11742;53.532;-1.478;2022-11-24T09:01:05;3.05;;;1.42;;
23146;SDS011;11742;53.532;-1.478;2022-11-24T09:03:35;4.47;;;1.45;;
23146;SDS011;11742;53.532;-1.478;2022-11-24T09:06:02;8.40;;;1.67;;
23146;SDS011;11742;53.532;-1.478;2022-11-24T09:08:29;4.65;;;1.33;;
23146;SDS011;11742;53.532;-1.478;2022-11-24T09:11:01;8.30;;;1.60;;
23146;SDS011;11742;53.532;-1.478;2022-11-24T09:13:29;4.22;;;1.35;;
23146;SDS011;11742;53.532;-1.478;2022-11-24T09:15:55;5.70;;;1.48;;
23146;SDS011;11742;53.532;-1.478;2022-11-24T09:18:20;6.75;;;2.10;;
23146;SDS011;11742;53.532;-1.478;2022-11-24T09:20:46;7.20;;;1.73;;
23146;SDS011;11742;53.532;-1.478;2022-11-24T09:23:12;7.13;;;1.40;;
23146;SDS011;11742;53.532;-1.478;2022-11-24T09:25:38;8.65;;;1.95;;
23146;SDS011;11742;53.532;-1.478;2022-11-24T09:28:04;10.18;;;2.50;;
23146;SDS011;11742;53.532;-1.478;2022-11-24T09:30:29;6.70;;;1.83;;
23146;SDS011;11742;53.532;-1.478;2022-11-24T09:32:55;4.85;;;1.52;;
23146;SDS011;11742;53.532;-1.478;2022-11-24T09:35:21;5.75;;;1.50;;
23146;SDS011;11742;53.532;-1.478;2022-11-24T09:37:47;11.77;;;1.92;;
23146;SDS011;11742;53.532;-1.478;2022-11-24T09:40:13;8.30;;;2.03;;
23146;SDS011;11742;53.532;-1.478;2022-11-24T09:42:46;5.22;;;1.70;;
23146;SDS011;11742;53.532;-1.478;2022-11-24T09:45:25;9.25;;;2.15;;
23146;SDS011;11742;53.532;-1.478;2022-11-24T09:48:14;7.80;;;1.50;;
23146;SDS011;11742;53.532;-1.478;2022-11-24T09:50:46;4.65;;;1.48;;
23146;SDS011;11742;53.532;-1.478;2022-11-24T09:55:48;7.30;;;1.70;;
23146;SDS011;11742;53.532;-1.478;2022-11-24T10:00:59;7.15;;;1.80;;
23146;SDS011;11742;53.532;-1.478;2022-11-24T10:03:30;5.63;;;1.70;;
23146;SDS011;11742;53.532;-1.478;2022-11-24T10:05:58;10.00;;;2.17;;
23146;SDS011;11742;53.532;-1.478;2022-11-24T10:08:35;8.52;;;1.75;;
23146;SDS011;11742;53.532;-1.478;2022-11-24T10:11:04;4.22;;;1.45;;
23146;SDS011;11742;53.532;-1.478;2022-11-24T10:19:47;5.93;;;1.75;;
23146;SDS011;11742;53.532;-1.478;2022-11-24T10:22:43;8.32;;;2.00;;
23146;SDS011;11742;53.532;-1.478;2022-11-24T10:28:24;7.45;;;2.10;;
23146;SDS011;11742;53.532;-1.478;2022-11-24T10:30:42;8.38;;;2.10;;
23146;SDS011;11742;53.532;-1.478;2022-11-24T10:33:20;8.38;;;1.80;;
23146;SDS011;11742;53.532;-1.478;2022-11-24T10:35:54;7.47;;;1.77;;
23146;SDS011;11742;53.532;-1.478;2022-11-24T10:44:42;7.90;;;2.05;;
23146;SDS011;11742;53.532;-1.478;2022-11-24T10:47:17;4.15;;;1.38;;
23146;SDS011;11742;53.532;-1.478;2022-11-24T10:49:45;7.97;;;1.92;;
23146;SDS011;11742;53.532;-1.478;2022-11-24T10:52:18;5.75;;;1.80;;
23146;SDS011;11742;53.532;-1.478;2022-11-24T10:54:52;5.65;;;1.80;;
23146;SDS011;11742;53.532;-1.478;2022-11-24T10:57:27;11.63;;;2.00;;
23146;SDS011;11742;53.532;-1.478;2022-11-24T10:59:55;8.10;;;2.00;;
23146;SDS011;11742;53.532;-1.478;2022-11-24T11:05:23;6.30;;;1.80;;
23146;SDS011;11742;53.532;-1.478;2022-11-24T11:08:36;9.15;;;2.55;;
23146;SDS011;11742;53.532;-1.478;2022-11-24T11:10:43;7.32;;;2.25;;
23146;SDS011;11742;53.532;-1.478;2022-11-24T11:13:20;7.85;;;1.92;;
23146;SDS011;11742;53.532;-1.478;2022-11-24T11:15:51;5.95;;;1.88;;
23146;SDS011;11742;53.532;-1.478;2022-11-24T11:18:17;6.38;;;2.13;;
23146;SDS011;11742;53.532;-1.478;2022-11-24T11:20:48;5.38;;;2.00;;
23146;SDS011;11742;53.532;-1.478;2022-11-24T11:23:24;11.57;;;2.45;;
23146;SDS011;11742;53.532;-1.478;2022-11-24T11:26:37;10.50;;;2.80;;
23146;SDS011;11742;53.532;-1.478;2022-11-24T11:28:41;15.77;;;2.55;;
23146;SDS011;11742;53.532;-1.478;2022-11-24T11:31:40;9.07;;;2.33;;
23146;SDS011;11742;53.532;-1.478;2022-11-24T11:34:14;10.57;;;2.35;;
23146;SDS011;11742;53.532;-1.478;2022-11-24T11:36:44;9.52;;;2.20;;
23146;SDS011;11742;53.532;-1.478;2022-11-24T11:39:22;15.05;;;2.80;;
23146;SDS011;11742;53.532;-1.478;2022-11-24T11:41:52;8.15;;;2.25;;
23146;SDS011;11742;53.532;-1.478;2022-11-24T11:44:40;10.07;;;2.17;;
23146;SDS011;11742;53.532;-1.478;2022-11-24T11:47:31;17.85;;;2.78;;
23146;SDS011;11742;53.532;-1.478;2022-11-24T11:50:00;14.02;;;3.83;;
23146;SDS011;11742;53.532;-1.478;2022-11-24T11:58:12;13.15;;;2.30;;
23146;SDS011;11742;53.532;-1.478;2022-11-24T12:00:52;9.85;;;2.30;;
23146;SDS011;11742;53.532;-1.478;2022-11-24T12:03:41;12.68;;;2.72;;
23146;SDS011;11742;53.532;-1.478;2022-11-24T12:12:20;13.70;;;3.00;;
23146;SDS011;11742;53.532;-1.478;2022-11-24T12:15:44;12.25;;;2.20;;
23146;SDS011;11742;53.532;-1.478;2022-11-24T12:18:17;9.43;;;2.88;;
23146;SDS011;11742;53.532;-1.478;2022-11-24T12:21:16;13.38;;;2.40;;
23146;SDS011;11742;53.532;-1.478;2022-11-24T12:32:10;10.90;;;2.38;;
23146;SDS011;11742;53.532;-1.478;2022-11-24T12:43:48;19.23;;;4.00;;
23146;SDS011;11742;53.532;-1.478;2022-11-24T12:51:43;17.33;;;3.90;;
23146;SDS011;11742;53.532;-1.478;2022-11-24T12:54:13;17.55;;;3.67;;
23146;SDS011;11742;53.532;-1.478;2022-11-24T12:56:48;22.42;;;3.63;;
23146;SDS011;11742;53.532;-1.478;2022-11-24T13:02:38;13.23;;;2.95;;
23146;SDS011;11742;53.532;-1.478;2022-11-24T13:05:20;14.05;;;3.00;;
23146;SDS011;11742;53.532;-1.478;2022-11-24T13:08:01;11.88;;;2.50;;
23146;SDS011;11742;53.532;-1.478;2022-11-24T13:13:00;8.75;;;2.65;;
23146;SDS011;11742;53.532;-1.478;2022-11-24T13:15:28;16.83;;;3.05;;
23146;SDS011;11742;53.532;-1.478;2022-11-24T13:17:56;13.80;;;2.80;;
23146;SDS011;11742;53.532;-1.478;2022-11-24T13:20:32;14.55;;;3.92;;
23146;SDS011;11742;53.532;-1.478;2022-11-24T13:23:02;13.98;;;2.67;;
23146;SDS011;11742;53.532;-1.478;2022-11-24T13:25:32;16.50;;;2.83;;
23146;SDS011;11742;53.532;-1.478;2022-11-24T13:28:01;9.50;;;2.90;;
23146;SDS011;11742;53.532;-1.478;2022-11-24T13:35:27;18.42;;;3.10;;
23146;SDS011;11742;53.532;-1.478;2022-11-24T13:37:53;18.77;;;3.90;;
23146;SDS011;11742;53.532;-1.478;2022-11-24T13:45:48;13.77;;;2.85;;
23146;SDS011;11742;53.532;-1.478;2022-11-24T13:58:24;15.80;;;4.68;;
23146;SDS011;11742;53.532;-1.478;2022-11-24T14:03:52;15.38;;;2.92;;
23146;SDS011;11742;53.532;-1.478;2022-11-24T14:08:51;10.35;;;2.72;;
23146;SDS011;11742;53.532;-1.478;2022-11-24T14:11:17;12.35;;;2.85;;
23146;SDS011;11742;53.532;-1.478;2022-11-24T14:13:44;11.02;;;2.78;;
23146;SDS011;11742;53.532;-1.478;2022-11-24T14:18:44;10.68;;;2.58;;
23146;SDS011;11742;53.532;-1.478;2022-11-24T14:23:46;9.45;;;3.00;;
23146;SDS011;11742;53.532;-1.478;2022-11-24T14:26:18;17.08;;;2.85;;
23146;SDS011;11742;53.532;-1.478;2022-11-24T14:28:46;12.32;;;2.17;;
23146;SDS011;11742;53.532;-1.478;2022-11-24T14:31:23;12.27;;;2.80;;
23146;SDS011;11742;53.532;-1.478;2022-11-24T14:34:01;13.57;;;2.50;;
23146;SDS011;11742;53.532;-1.478;2022-11-24T14:36:40;13.02;;;2.63;;
23146;SDS011;11742;53.532;-1.478;2022-11-24T14:39:10;9.60;;;2.70;;
23146;SDS011;11742;53.532;-1.478;2022-11-24T14:41:41;8.70;;;1.88;;
23146;SDS011;11742;53.532;-1.478;2022-11-24T14:44:18;9.57;;;2.15;;
23146;SDS011;11742;53.532;-1.478;2022-11-24T14:46:44;12.90;;;2.42;;
23146;SDS011;11742;53.532;-1.478;2022-11-24T14:49:15;11.30;;;2.00;;
23146;SDS011;11742;53.532;-1.478;2022-11-24T14:51:43;7.05;;;2.30;;
23146;SDS011;11742;53.532;-1.478;2022-11-24T14:54:15;8.27;;;2.13;;
23146;SDS011;11742;53.532;-1.478;2022-11-24T14:56:54;7.82;;;2.15;;
23146;SDS011;11742;53.532;-1.478;2022-11-24T14:59:26;8.20;;;2.00;;
23146;SDS011;11742;53.532;-1.478;2022-11-24T15:01:53;9.40;;;2.53;;
23146;SDS011;11742;53.532;-1.478;2022-11-24T15:04:26;5.95;;;1.40;;
23146;SDS011;11742;53.532;-1.478;2022-11-24T15:07:27;6.70;;;1.48;;
23146;SDS011;11742;53.532;-1.478;2022-11-24T15:09:55;2.88;;;1.20;;
23146;SDS011;11742;53.532;-1.478;2022-11-24T15:15:05;2.40;;;1.05;;
23146;SDS011;11742;53.532;-1.478;2022-11-24T15:17:47;4.57;;;1.10;;
23146;SDS011;11742;53.532;-1.478;2022-11-24T15:23:41;2.33;;;0.70;;
23146;SDS011;11742;53.532;-1.478;2022-11-24T15:25:46;3.15;;;0.80;;
23146;SDS011;11742;53.532;-1.478;2022-11-24T15:28:14;2.55;;;1.27;;
23146;SDS011;11742;53.532;-1.478;2022-11-24T15:30:39;1.65;;;0.80;;
23146;SDS011;11742;53.532;-1.478;2022-11-24T15:33:10;4.20;;;0.82;;
23146;SDS011;11742;53.532;-1.478;2022-11-24T15:35:40;2.75;;;1.00;;
23146;SDS011;11742;53.532;-1.478;2022-11-24T15:38:06;1.65;;;0.80;;
23146;SDS011;11742;53.532;-1.478;2022-11-24T15:40:32;1.40;;;0.60;;
23146;SDS011;11742;53.532;-1.478;2022-11-24T15:42:58;2.08;;;0.80;;
23146;SDS011;11742;53.532;-1.478;2022-11-24T15:45:24;2.05;;;0.70;;
23146;SDS011;11742;53.532;-1.478;2022-11-24T15:47:50;2.95;;;0.90;;
23146;SDS011;11742;53.532;-1.478;2022-11-24T15:50:16;3.80;;;0.88;;
23146;SDS011;11742;53.532;-1.478;2022-11-24T15:52:43;1.55;;;0.60;;
23146;SDS011;11742;53.532;-1.478;2022-11-24T15:55:16;2.50;;;0.73;;
23146;SDS011;11742;53.532;-1.478;2022-11-24T15:57:44;1.05;;;0.60;;
23146;SDS011;11742;53.532;-1.478;2022-11-24T16:00:17;2.53;;;0.98;;
23146;SDS011;11742;53.532;-1.478;2022-11-24T16:02:45;1.90;;;0.70;;
23146;SDS011;11742;53.532;-1.478;2022-11-24T16:05:11;2.80;;;0.77;;
23146;SDS011;11742;53.532;-1.478;2022-11-24T16:07:37;3.47;;;0.80;;
23146;SDS011;11742;53.532;-1.478;2022-11-24T16:10:04;1.17;;;0.65;;
23146;SDS011;11742;53.532;-1.478;2022-11-24T16:12:31;4.00;;;1.42;;
23146;SDS011;11742;53.532;-1.478;2022-11-24T16:14:57;2.85;;;1.00;;
23146;SDS011;11742;53.532;-1.478;2022-11-24T16:17:23;3.20;;;1.52;;
23146;SDS011;11742;53.532;-1.478;2022-11-24T16:19:48;4.00;;;1.65;;
23146;SDS011;11742;53.532;-1.478;2022-11-24T16:22:14;1.50;;;1.05;;
23146;SDS011;11742;53.532;-1.478;2022-11-24T16:24:40;3.38;;;1.30;;
23146;SDS011;11742;53.532;-1.478;2022-11-24T16:27:05;3.42;;;1.23;;
23146;SDS011;11742;53.532;-1.478;2022-11-24T16:29:31;5.72;;;1.83;;
23146;SDS011;11742;53.532;-1.478;2022-11-24T16:31:57;2.05;;;1.20;;